Time;durP1;ratioP1;P1;durP2;ratioP2;P2;SDS_P1;SDS_P2;PMS_P1;PMS_P2;Temp;Humidity;BMP_temperature;BMP_pressure;BME280_temperature;BME280_humidity;BME280_pressure;Samples;Min_cycle;Max_cycle;Signal;HPM_P1;HPM_P2
2024/01/17 00:01:58;;;;;;;0.30;0.30;;;0.70;99.90;;;;;;5068330;28;20177;-85
2024/01/17 00:04:24;;;;;;;0.30;0.30;;;0.70;99.90;;;;;;5069239;28;20193;-85
2024/01/17 00:06:50;;;;;;;0.30;0.30;;;0.70;99.90;;;;;;5068416;28;20691;-79
2024/01/17 00:09:17;;;;;;;0.30;0.30;;;0.70;99.90;;;;;;5069150;28;20237;-79
2024/01/17 00:11:42;;;;;;;0.30;0.30;;;0.70;99.90;;;;;;5068526;28;20807;-79
2024/01/17 00:14:09;;;;;;;0.30;0.30;;;0.70;99.90;;;;;;5069017;28;20272;-78
2024/01/17 00:16:35;;;;;;;0.30;0.20;;;0.70;99.90;;;;;;5068294;28;20794;-78
2024/01/17 00:19:00;;;;;;;0.30;0.30;;;0.70;99.90;;;;;;5068804;28;20303;-79
2024/01/17 00:21:27;;;;;;;0.30;0.30;;;0.70;99.90;;;;;;5068257;28;20435;-79
2024/01/17 00:23:53;;;;;;;0.30;0.30;;;0.70;99.90;;;;;;5067439;28;20205;-86
2024/01/17 00:26:19;;;;;;;0.30;0.30;;;0.70;99.90;;;;;;5069548;28;20161;-79
2024/01/17 00:28:44;;;;;;;0.30;0.30;;;0.70;99.90;;;;;;5067869;28;20536;-78
2024/01/17 00:31:10;;;;;;;0.30;0.30;;;0.70;99.90;;;;;;5067157;28;20471;-79
2024/01/17 00:33:36;;;;;;;0.30;0.20;;;0.70;99.90;;;;;;5067637;28;20631;-79
2024/01/17 00:36:02;;;;;;;0.30;0.30;;;0.80;99.90;;;;;;5070887;28;20354;-79
2024/01/17 00:38:28;;;;;;;0.30;0.30;;;0.80;99.90;;;;;;5073567;28;20645;-85
2024/01/17 00:40:53;;;;;;;0.30;0.30;;;0.70;99.90;;;;;;5073325;28;20203;-84
2024/01/17 00:43:20;;;;;;;0.30;0.30;;;0.80;99.90;;;;;;5071592;28;20211;-78
2024/01/17 00:45:46;;;;;;;0.30;0.30;;;0.80;99.90;;;;;;5073522;28;20231;-78
2024/01/17 00:48:13;;;;;;;0.30;0.30;;;0.80;99.90;;;;;;5073215;28;20189;-85
2024/01/17 00:50:39;;;;;;;0.30;0.30;;;0.80;99.90;;;;;;5071310;28;20458;-85
2024/01/17 00:53:05;;;;;;;0.30;0.20;;;0.80;99.90;;;;;;5071232;28;20201;-79
2024/01/17 00:55:32;;;;;;;0.30;0.30;;;0.80;99.90;;;;;;5072922;28;20668;-79
2024/01/17 00:57:58;;;;;;;0.30;0.30;;;0.80;99.90;;;;;;5073010;28;20205;-79
2024/01/17 01:00:24;;;;;;;0.30;0.20;;;0.80;99.90;;;;;;5071511;28;20266;-84
2024/01/17 01:02:52;;;;;;;0.30;0.30;;;0.80;99.90;;;;;;5072963;28;20270;-85
2024/01/17 01:05:18;;;;;;;0.30;0.30;;;0.80;99.90;;;;;;5071377;28;20268;-79
2024/01/17 01:07:47;;;;;;;0.30;0.30;;;0.80;99.90;;;;;;5071508;28;20282;-78
2024/01/17 01:10:13;;;;;;;0.30;0.30;;;0.80;99.90;;;;;;5071106;28;20456;-78
2024/01/17 01:12:39;;;;;;;0.30;0.30;;;0.80;99.90;;;;;;5071412;28;20572;-78
2024/01/17 01:15:05;;;;;;;0.30;0.30;;;0.70;99.90;;;;;;5071008;28;20501;-85
2024/01/17 01:17:31;;;;;;;0.30;0.30;;;0.80;99.90;;;;;;5071083;28;20396;-79
2024/01/17 01:19:57;;;;;;;0.30;0.30;;;0.80;99.90;;;;;;5070913;28;20177;-79
2024/01/17 01:22:23;;;;;;;0.30;0.30;;;0.80;99.90;;;;;;5071211;28;20398;-79
2024/01/17 01:24:49;;;;;;;0.30;0.30;;;0.80;99.90;;;;;;5072145;28;20193;-79
2024/01/17 01:27:15;;;;;;;0.30;0.30;;;0.80;99.90;;;;;;5071074;28;20555;-86
2024/01/17 01:29:41;;;;;;;0.30;0.30;;;0.80;99.90;;;;;;5072060;28;20215;-86
2024/01/17 01:32:07;;;;;;;0.30;0.30;;;0.80;99.90;;;;;;5072170;28;20440;-85
2024/01/17 01:34:33;;;;;;;0.30;0.30;;;0.70;99.90;;;;;;5069868;28;20197;-85
2024/01/17 01:37:00;;;;;;;0.30;0.30;;;0.70;99.90;;;;;;5070816;28;20185;-85
2024/01/17 01:39:26;;;;;;;0.30;0.30;;;0.70;99.90;;;;;;5072011;28;20397;-78
2024/01/17 01:41:52;;;;;;;0.30;0.30;;;0.70;99.90;;;;;;5071118;28;20292;-86
2024/01/17 01:44:18;;;;;;;0.30;0.30;;;0.70;99.90;;;;;;5071713;28;20751;-78
2024/01/17 01:46:46;;;;;;;0.30;0.30;;;0.70;99.90;;;;;;5072799;28;20400;-79
2024/01/17 01:49:14;;;;;;;0.30;0.30;;;0.70;99.90;;;;;;5069563;28;20284;-85
2024/01/17 01:51:44;;;;;;;0.30;0.30;;;0.70;99.90;;;;;;5070391;28;20221;-78
2024/01/17 01:54:11;;;;;;;0.30;0.30;;;0.60;99.90;;;;;;5069733;28;20205;-85
2024/01/17 01:56:37;;;;;;;0.30;0.30;;;0.70;99.90;;;;;;5072076;28;20169;-79
2024/01/17 01:59:04;;;;;;;0.30;0.30;;;0.60;99.90;;;;;;5069845;28;20376;-86
2024/01/17 02:01:30;;;;;;;0.30;0.30;;;0.60;99.90;;;;;;5071935;28;20238;-86
2024/01/17 02:03:57;;;;;;;0.30;0.30;;;0.60;99.90;;;;;;5070024;28;20247;-78
2024/01/17 02:06:25;;;;;;;0.30;0.30;;;0.60;99.90;;;;;;5070354;28;20173;-79
2024/01/17 02:08:55;;;;;;;0.30;0.30;;;0.70;99.90;;;;;;5070848;28;20287;-79
2024/01/17 02:11:21;;;;;;;0.30;0.30;;;0.60;99.90;;;;;;5071752;28;20708;-84
2024/01/17 02:13:48;;;;;;;0.30;0.30;;;0.60;99.90;;;;;;5069849;28;20201;-86
2024/01/17 02:16:15;;;;;;;0.30;0.20;;;0.60;99.90;;;;;;5071759;28;20202;-79
2024/01/17 02:18:42;;;;;;;0.30;0.30;;;0.60;99.90;;;;;;5071254;28;20201;-78
2024/01/17 02:21:08;;;;;;;0.30;0.30;;;0.60;99.90;;;;;;5071469;28;20686;-85
2024/01/17 02:23:34;;;;;;;0.30;0.30;;;0.60;99.90;;;;;;5070714;28;20204;-86
2024/01/17 02:26:01;;;;;;;0.30;0.30;;;0.60;99.90;;;;;;5071732;28;20177;-81
2024/01/17 02:28:28;;;;;;;0.30;0.30;;;0.60;99.90;;;;;;5071314;28;20693;-79
2024/01/17 02:30:54;;;;;;;0.30;0.30;;;0.60;99.90;;;;;;5069582;28;20262;-85
2024/01/17 02:33:20;;;;;;;0.30;0.30;;;0.60;99.90;;;;;;5070082;28;20237;-79
2024/01/17 02:35:46;;;;;;;0.30;0.30;;;0.60;99.90;;;;;;5069747;28;20207;-85
2024/01/17 02:38:11;;;;;;;0.30;0.30;;;0.60;99.90;;;;;;5070101;28;20264;-79
2024/01/17 02:40:37;;;;;;;0.30;0.30;;;0.60;99.90;;;;;;5071638;28;20253;-78
2024/01/17 02:43:04;;;;;;;0.30;0.30;;;0.60;99.90;;;;;;5071098;28;20201;-79
2024/01/17 02:45:30;;;;;;;0.30;0.30;;;0.60;99.90;;;;;;5069760;28;20646;-79
2024/01/17 02:47:56;;;;;;;0.30;0.30;;;0.50;99.90;;;;;;5070677;28;20232;-85
2024/01/17 02:50:22;;;;;;;0.30;0.30;;;0.50;99.90;;;;;;5070851;28;20406;-83
2024/01/17 02:52:48;;;;;;;0.30;0.30;;;0.50;99.90;;;;;;5070339;28;20209;-79
2024/01/17 02:55:18;;;;;;;0.30;0.30;;;0.50;99.90;;;;;;5068913;28;20404;-85
2024/01/17 02:57:44;;;;;;;0.30;0.30;;;0.50;99.90;;;;;;5069262;28;20205;-78
2024/01/17 03:00:10;;;;;;;0.30;0.30;;;0.50;99.90;;;;;;5067894;28;20292;-79
2024/01/17 03:02:36;;;;;;;0.30;0.30;;;0.50;99.90;;;;;;5070841;28;20173;-78
2024/01/17 03:05:03;;;;;;;0.30;0.30;;;0.50;99.90;;;;;;5070106;28;20196;-78
2024/01/17 03:07:30;;;;;;;0.30;0.30;;;0.50;99.90;;;;;;5069013;28;20676;-85
2024/01/17 03:09:55;;;;;;;0.30;0.30;;;0.50;99.90;;;;;;5068539;28;20706;-78
2024/01/17 03:12:21;;;;;;;0.30;0.20;;;0.50;99.90;;;;;;5070642;28;20220;-85
2024/01/17 03:14:47;;;;;;;0.30;0.30;;;0.50;99.90;;;;;;5070222;28;20383;-78
2024/01/17 03:17:13;;;;;;;0.30;0.30;;;0.40;99.90;;;;;;5068830;28;20442;-78
2024/01/17 03:19:39;;;;;;;0.30;0.30;;;0.40;99.90;;;;;;5070157;28;20296;-78
2024/01/17 03:22:05;;;;;;;0.30;0.30;;;0.40;99.90;;;;;;5068633;28;20533;-85
2024/01/17 03:24:30;;;;;;;0.30;0.30;;;0.40;99.90;;;;;;5068403;28;20413;-86
2024/01/17 03:26:56;;;;;;;0.30;0.20;;;0.40;99.90;;;;;;5070150;28;20208;-85
2024/01/17 03:29:22;;;;;;;0.30;0.30;;;0.30;99.90;;;;;;5069626;28;20227;-86
2024/01/17 03:31:47;;;;;;;0.30;0.30;;;0.30;99.90;;;;;;5068698;28;20748;-78
2024/01/17 03:34:13;;;;;;;0.30;0.30;;;0.30;99.90;;;;;;5069646;28;20199;-85
2024/01/17 03:36:39;;;;;;;0.30;0.30;;;0.20;99.90;;;;;;5070203;28;20235;-85
2024/01/17 03:39:05;;;;;;;0.40;0.40;;;0.30;99.90;;;;;;5069589;28;20369;-86
2024/01/17 03:41:40;;;;;;;0.30;0.30;;;0.30;99.90;;;;;;5069173;28;20165;-78
2024/01/17 03:44:06;;;;;;;0.30;0.30;;;0.30;99.90;;;;;;5067967;28;20204;-78
2024/01/17 03:46:32;;;;;;;0.30;0.30;;;0.30;99.90;;;;;;5068676;28;20204;-78
2024/01/17 03:48:58;;;;;;;0.30;0.30;;;0.30;99.90;;;;;;5068247;28;20201;-86
2024/01/17 03:51:23;;;;;;;0.30;0.30;;;0.30;99.90;;;;;;5068424;28;20436;-80
2024/01/17 03:53:49;;;;;;;0.30;0.30;;;0.30;99.90;;;;;;5067727;28;20215;-87
2024/01/17 03:56:15;;;;;;;0.30;0.30;;;0.30;99.90;;;;;;5069388;28;20408;-83
2024/01/17 03:58:41;;;;;;;0.30;0.30;;;0.40;99.90;;;;;;5067637;28;20207;-86
2024/01/17 04:01:08;;;;;;;0.30;0.30;;;0.40;99.90;;;;;;5069635;28;20946;-79
2024/01/17 04:03:34;;;;;;;0.30;0.30;;;0.40;99.90;;;;;;5069794;28;20205;-86
2024/01/17 04:06:00;;;;;;;0.30;0.30;;;0.40;99.90;;;;;;5069777;28;20238;-80
2024/01/17 04:08:25;;;;;;;0.30;0.30;;;0.50;99.90;;;;;;5069217;28;20223;-79
2024/01/17 04:10:51;;;;;;;0.30;0.23;;;0.60;99.90;;;;;;5069091;28;20487;-85
2024/01/17 04:13:17;;;;;;;0.30;0.30;;;0.60;99.90;;;;;;5069617;28;20189;-81
2024/01/17 04:15:42;;;;;;;0.30;0.30;;;0.70;99.90;;;;;;5069645;28;20201;-84
2024/01/17 04:18:08;;;;;;;0.30;0.30;;;0.70;99.90;;;;;;5069860;28;20261;-79
2024/01/17 04:20:34;;;;;;;0.30;0.30;;;0.80;99.90;;;;;;5067841;28;20223;-79
2024/01/17 04:23:02;;;;;;;0.30;0.30;;;0.80;99.90;;;;;;5069223;28;20571;-86
2024/01/17 04:25:28;;;;;;;0.30;0.20;;;0.90;99.90;;;;;;5068071;28;20406;-86
2024/01/17 04:27:54;;;;;;;0.30;0.30;;;0.90;99.90;;;;;;5069395;28;20193;-79
2024/01/17 04:30:20;;;;;;;0.30;0.20;;;1.00;99.90;;;;;;5067865;28;20437;-86
2024/01/17 04:33:04;;;;;;;0.30;0.30;;;1.00;99.90;;;;;;5069172;28;20228;-79
2024/01/17 04:35:29;;;;;;;0.30;0.30;;;1.00;99.90;;;;;;5069173;28;20177;-79
2024/01/17 04:37:55;;;;;;;0.30;0.30;;;1.00;99.90;;;;;;5068104;28;20250;-78
2024/01/17 04:40:21;;;;;;;0.30;0.30;;;1.00;99.90;;;;;;5067831;28;20188;-85
2024/01/17 04:42:48;;;;;;;0.30;0.20;;;1.00;99.90;;;;;;5068760;28;20216;-85
2024/01/17 04:45:17;;;;;;;0.30;0.20;;;1.00;99.90;;;;;;5069328;28;20173;-79
2024/01/17 04:47:43;;;;;;;0.30;0.30;;;1.10;99.90;;;;;;5068101;28;20689;-85
2024/01/17 04:50:10;;;;;;;0.30;0.30;;;1.20;99.90;;;;;;5069371;28;20173;-85
2024/01/17 04:52:36;;;;;;;0.30;0.30;;;1.20;99.90;;;;;;5068701;28;20747;-86
2024/01/17 04:55:01;;;;;;;0.30;0.30;;;1.20;99.90;;;;;;5066764;28;20189;-79
2024/01/17 04:57:27;;;;;;;0.30;0.30;;;1.20;99.90;;;;;;5069013;28;20219;-79
2024/01/17 04:59:53;;;;;;;0.30;0.30;;;1.30;99.90;;;;;;5068817;28;20251;-85
2024/01/17 05:02:19;;;;;;;0.30;0.20;;;1.30;99.90;;;;;;5069271;28;20170;-85
2024/01/17 05:04:45;;;;;;;0.30;0.30;;;1.30;99.90;;;;;;5068631;28;20208;-84
2024/01/17 05:07:10;;;;;;;0.30;0.30;;;1.30;99.90;;;;;;5067804;28;20180;-86
2024/01/17 05:09:37;;;;;;;0.30;0.20;;;1.40;99.90;;;;;;5066629;28;20440;-85
2024/01/17 05:12:04;;;;;;;0.30;0.30;;;1.40;99.90;;;;;;5066767;28;20700;-86
2024/01/17 05:14:30;;;;;;;0.30;0.30;;;1.40;99.90;;;;;;5067010;28;20260;-78
2024/01/17 05:16:56;;;;;;;0.30;0.30;;;1.40;99.90;;;;;;5068314;28;20204;-79
2024/01/17 05:19:22;;;;;;;0.30;0.30;;;1.30;99.90;;;;;;5069027;28;20206;-85
2024/01/17 05:21:48;;;;;;;0.30;0.30;;;1.30;99.90;;;;;;5088634;28;20191;-78
2024/01/17 05:24:13;;;;;;;0.30;0.30;;;1.20;99.90;;;;;;5088910;28;20205;-85
2024/01/17 05:26:39;;;;;;;0.30;0.20;;;1.20;99.90;;;;;;5090513;28;20176;-79
2024/01/17 05:29:05;;;;;;;0.30;0.30;;;1.20;99.90;;;;;;5090027;28;20239;-78
2024/01/17 05:31:31;;;;;;;0.30;0.20;;;1.20;99.90;;;;;;5090606;28;20459;-79
2024/01/17 05:33:57;;;;;;;0.30;0.20;;;1.30;99.90;;;;;;5090085;28;20203;-79
2024/01/17 05:36:22;;;;;;;0.30;0.30;;;1.20;99.90;;;;;;5089843;28;20180;-78
2024/01/17 05:38:48;;;;;;;0.30;0.20;;;1.30;99.90;;;;;;5089806;28;20193;-86
2024/01/17 05:41:14;;;;;;;0.30;0.30;;;1.30;99.90;;;;;;5092183;28;20212;-85
2024/01/17 05:43:40;;;;;;;0.30;0.20;;;1.40;99.90;;;;;;5089134;28;20753;-86
2024/01/17 05:46:05;;;;;;;0.30;0.20;;;1.40;99.90;;;;;;5083041;28;20188;-84
2024/01/17 05:48:31;;;;;;;0.30;0.30;;;1.40;99.90;;;;;;5080111;28;20752;-85
2024/01/17 05:50:57;;;;;;;0.30;0.25;;;1.40;99.90;;;;;;5082584;28;20211;-84
2024/01/17 05:53:23;;;;;;;0.30;0.30;;;1.40;99.90;;;;;;5080049;28;20275;-85
2024/01/17 05:55:48;;;;;;;0.30;0.30;;;1.40;99.90;;;;;;5090602;28;20301;-80
2024/01/17 05:58:14;;;;;;;0.30;0.30;;;1.50;99.90;;;;;;5089039;28;20208;-86
2024/01/17 06:00:40;;;;;;;0.30;0.20;;;1.50;99.90;;;;;;5089671;28;20177;-78
2024/01/17 06:03:06;;;;;;;0.30;0.20;;;1.50;99.90;;;;;;5090108;28;20330;-78
2024/01/17 06:05:31;;;;;;;0.30;0.30;;;1.40;99.90;;;;;;5088441;28;20279;-83
2024/01/17 06:07:57;;;;;;;0.30;0.30;;;1.40;99.90;;;;;;5089185;28;20235;-80
2024/01/17 06:10:25;;;;;;;0.30;0.20;;;1.40;99.90;;;;;;5088254;28;20235;-79
2024/01/17 06:12:50;;;;;;;0.30;0.30;;;1.40;99.90;;;;;;5089558;28;20447;-85
2024/01/17 06:15:17;;;;;;;0.30;0.20;;;1.40;99.90;;;;;;5089491;28;20180;-79
2024/01/17 06:17:43;;;;;;;0.30;0.30;;;1.50;99.90;;;;;;5088232;28;20279;-79
2024/01/17 06:20:13;;;;;;;0.30;0.20;;;1.50;99.90;;;;;;5089267;28;20193;-79
2024/01/17 06:22:39;;;;;;;0.30;0.30;;;1.50;99.90;;;;;;5089100;28;20237;-85
2024/01/17 06:25:08;;;;;;;0.30;0.20;;;1.40;99.90;;;;;;5086334;28;20185;-79
2024/01/17 06:27:34;;;;;;;0.30;0.20;;;1.40;99.90;;;;;;5080044;28;20407;-78
2024/01/17 06:30:00;;;;;;;0.30;0.20;;;1.40;99.90;;;;;;5076688;28;20190;-85
2024/01/17 06:32:25;;;;;;;0.30;0.30;;;1.40;99.90;;;;;;5089919;28;20798;-85
2024/01/17 06:34:51;;;;;;;0.30;0.30;;;1.40;99.90;;;;;;5088118;28;20272;-79
2024/01/17 06:37:17;;;;;;;0.30;0.30;;;1.40;99.90;;;;;;5087826;28;20211;-79
2024/01/17 06:39:43;;;;;;;0.30;0.20;;;1.40;99.90;;;;;;5085279;28;20290;-79
2024/01/17 06:42:10;;;;;;;0.30;0.20;;;1.40;99.90;;;;;;5081152;28;20758;-85
2024/01/17 06:44:36;;;;;;;0.30;0.20;;;1.40;99.90;;;;;;5087280;28;20283;-85
2024/01/17 06:47:02;;;;;;;0.30;0.20;;;1.50;99.90;;;;;;5087799;28;20256;-79
2024/01/17 06:49:27;;;;;;;0.30;0.30;;;1.50;99.90;;;;;;5084249;28;20201;-84
2024/01/17 06:51:54;;;;;;;0.30;0.30;;;1.60;99.90;;;;;;5083264;28;20447;-78
2024/01/17 06:54:20;;;;;;;0.30;0.30;;;1.60;99.90;;;;;;5082247;28;20438;-86
2024/01/17 06:56:46;;;;;;;0.30;0.20;;;1.70;99.90;;;;;;5080780;28;20200;-79
2024/01/17 06:59:12;;;;;;;0.30;0.20;;;1.60;99.90;;;;;;5071868;28;20209;-79
2024/01/17 07:01:38;;;;;;;0.30;0.20;;;1.60;99.90;;;;;;5075831;28;20419;-85
2024/01/17 07:04:04;;;;;;;0.30;0.30;;;1.70;99.90;;;;;;5078186;28;20945;-78
2024/01/17 07:06:29;;;;;;;0.30;0.30;;;1.80;99.90;;;;;;5076724;28;20188;-85
2024/01/17 07:08:55;;;;;;;0.30;0.20;;;1.80;99.90;;;;;;5067785;28;20255;-78
2024/01/17 07:11:20;;;;;;;0.30;0.30;;;1.80;99.90;;;;;;5071341;28;20211;-78
2024/01/17 07:13:46;;;;;;;0.30;0.20;;;1.80;99.90;;;;;;5076989;28;20242;-78
2024/01/17 07:16:15;;;;;;;0.30;0.20;;;1.90;99.90;;;;;;5069796;28;20195;-85
2024/01/17 07:18:41;;;;;;;0.30;0.20;;;1.90;99.90;;;;;;5079466;28;20212;-78
2024/01/17 07:21:07;;;;;;;0.30;0.30;;;1.90;99.90;;;;;;5081906;28;20192;-79
2024/01/17 07:23:34;;;;;;;0.30;0.30;;;2.00;99.90;;;;;;5080466;28;20571;-86
2024/01/17 07:26:00;;;;;;;0.30;0.30;;;1.90;99.90;;;;;;5084880;28;20244;-79
2024/01/17 07:28:26;;;;;;;0.30;0.30;;;2.00;99.90;;;;;;5077100;28;20333;-86
2024/01/17 07:30:52;;;;;;;0.30;0.30;;;2.00;99.90;;;;;;5084204;28;20477;-80
2024/01/17 07:33:17;;;;;;;0.30;0.30;;;1.90;99.90;;;;;;5083012;28;20557;-79
2024/01/17 07:35:43;;;;;;;0.30;0.30;;;2.00;99.90;;;;;;5083803;28;20461;-84
2024/01/17 07:38:09;;;;;;;0.30;0.30;;;2.00;99.90;;;;;;5085953;28;20211;-87
2024/01/17 07:40:34;;;;;;;0.30;0.30;;;2.00;99.90;;;;;;5088337;28;20272;-87
2024/01/17 07:43:00;;;;;;;0.30;0.30;;;2.00;99.90;;;;;;5084812;28;20686;-87
2024/01/17 07:45:26;;;;;;;0.30;0.30;;;2.10;99.90;;;;;;5084659;28;20188;-86
2024/01/17 07:47:52;;;;;;;0.30;0.30;;;2.10;99.90;;;;;;5083058;28;20284;-80
2024/01/17 07:50:17;;;;;;;0.30;0.20;;;2.10;99.90;;;;;;5083696;28;20180;-80
2024/01/17 07:52:44;;;;;;;0.30;0.30;;;2.10;99.90;;;;;;5074115;28;20579;-87
2024/01/17 07:55:09;;;;;;;0.30;0.30;;;2.10;99.90;;;;;;5082194;28;20666;-80
2024/01/17 07:57:35;;;;;;;0.30;0.20;;;2.10;99.90;;;;;;5077947;28;20222;-87
2024/01/17 08:00:01;;;;;;;0.30;0.30;;;2.20;99.90;;;;;;5072551;28;20270;-84
2024/01/17 08:02:27;;;;;;;0.30;0.30;;;2.20;99.90;;;;;;5075138;28;20184;-87
2024/01/17 08:04:53;;;;;;;0.30;0.30;;;2.30;99.90;;;;;;5080801;28;20223;-80
2024/01/17 08:07:24;;;;;;;0.30;0.30;;;2.30;99.90;;;;;;5082915;28;20226;-78
2024/01/17 08:09:52;;;;;;;0.30;0.30;;;2.30;99.90;;;;;;5084853;28;20234;-78
2024/01/17 08:12:17;;;;;;;0.30;0.20;;;2.30;99.90;;;;;;5082969;28;20220;-78
2024/01/17 08:14:43;;;;;;;0.30;0.30;;;2.40;99.90;;;;;;5076486;28;20335;-79
2024/01/17 08:17:09;;;;;;;0.30;0.30;;;2.40;99.90;;;;;;5080058;28;20181;-79
2024/01/17 08:19:34;;;;;;;0.30;0.30;;;2.50;99.90;;;;;;5079245;28;20721;-86
2024/01/17 08:22:01;;;;;;;0.30;0.20;;;2.50;99.90;;;;;;5081877;28;20321;-86
2024/01/17 08:24:27;;;;;;;0.30;0.20;;;2.60;99.90;;;;;;5081732;28;20213;-85
2024/01/17 08:26:52;;;;;;;0.30;0.30;;;2.60;99.90;;;;;;5085858;28;20701;-86
2024/01/17 08:29:18;;;;;;;0.30;0.20;;;2.60;99.90;;;;;;5087146;28;20204;-79
2024/01/17 08:31:44;;;;;;;0.30;0.20;;;2.70;99.90;;;;;;5085970;28;20208;-85
2024/01/17 08:34:11;;;;;;;0.30;0.30;;;2.70;99.90;;;;;;5084514;28;20212;-85
2024/01/17 08:36:37;;;;;;;0.30;0.30;;;2.70;99.90;;;;;;5084109;28;20256;-86
2024/01/17 08:39:05;;;;;;;0.30;0.20;;;2.80;99.90;;;;;;5080538;28;20280;-79
2024/01/17 08:41:31;;;;;;;0.30;0.20;;;2.70;99.90;;;;;;5082893;28;20189;-86
2024/01/17 08:43:57;;;;;;;0.30;0.30;;;2.80;99.90;;;;;;5082195;28;20197;-79
2024/01/17 08:46:22;;;;;;;0.30;0.30;;;2.80;99.90;;;;;;5074409;28;20332;-86
2024/01/17 08:48:48;;;;;;;0.30;0.30;;;2.90;99.90;;;;;;5063544;28;20212;-85
2024/01/17 08:51:14;;;;;;;0.30;0.20;;;3.10;99.90;;;;;;5069429;28;20625;-79
2024/01/17 08:53:41;;;;;;;0.30;0.30;;;3.20;99.90;;;;;;5078956;28;20209;-86
2024/01/17 08:56:07;;;;;;;0.30;0.30;;;3.40;99.90;;;;;;5076899;28;20215;-86
2024/01/17 08:58:33;;;;;;;1.48;1.48;;;3.50;99.90;;;;;;5080672;28;20537;-79
2024/01/17 09:00:59;;;;;;;0.30;0.30;;;3.90;99.90;;;;;;5085832;28;20188;-79
2024/01/17 09:03:24;;;;;;;0.30;0.20;;;4.40;99.90;;;;;;5084165;28;20457;-79
2024/01/17 09:05:50;;;;;;;0.30;0.30;;;4.80;99.90;;;;;;5087062;28;20765;-79
2024/01/17 09:08:16;;;;;;;0.30;0.20;;;5.00;99.90;;;;;;5082949;28;20208;-86
2024/01/17 09:10:42;;;;;;;0.30;0.20;;;4.90;99.90;;;;;;5085510;28;20462;-79
2024/01/17 09:13:09;;;;;;;0.30;0.20;;;4.80;99.90;;;;;;5082015;28;20249;-79
2024/01/17 09:15:35;;;;;;;0.30;0.20;;;4.70;99.90;;;;;;5086321;28;20706;-85
2024/01/17 09:18:01;;;;;;;0.30;0.20;;;4.60;99.90;;;;;;5082415;28;20207;-79
2024/01/17 09:20:27;;;;;;;0.30;0.30;;;4.50;99.90;;;;;;5078615;28;20724;-79
2024/01/17 09:22:53;;;;;;;0.30;0.20;;;4.40;99.90;;;;;;5081624;28;20223;-79
2024/01/17 09:25:19;;;;;;;0.30;0.20;;;4.30;99.90;;;;;;5079959;28;20732;-85
2024/01/17 09:27:44;;;;;;;0.30;0.20;;;4.30;99.90;;;;;;5081536;28;20235;-85
2024/01/17 09:30:11;;;;;;;0.30;0.20;;;4.30;99.90;;;;;;5083309;28;20196;-79
2024/01/17 09:32:37;;;;;;;0.30;0.20;;;4.20;99.90;;;;;;5087229;28;20867;-85
2024/01/17 09:35:04;;;;;;;0.30;0.20;;;4.20;99.90;;;;;;5086108;28;20180;-79
2024/01/17 09:37:30;;;;;;;0.30;0.20;;;4.20;99.90;;;;;;5084418;28;20657;-79
2024/01/17 09:39:55;;;;;;;0.30;0.20;;;4.10;99.90;;;;;;5083966;28;20207;-85
2024/01/17 09:42:22;;;;;;;0.30;0.20;;;4.10;99.90;;;;;;5076512;28;20484;-79
2024/01/17 09:44:48;;;;;;;0.30;0.20;;;4.10;99.90;;;;;;5080645;28;20425;-86
2024/01/17 09:47:16;;;;;;;0.30;0.20;;;4.10;99.90;;;;;;5078014;28;20185;-79
2024/01/17 09:49:42;;;;;;;0.30;0.20;;;4.20;99.90;;;;;;5081766;28;20432;-79
2024/01/17 09:52:13;;;;;;;0.30;0.30;;;4.20;99.90;;;;;;5080647;28;20212;-79
2024/01/17 09:54:42;;;;;;;0.30;0.20;;;4.30;99.90;;;;;;5082991;28;20212;-86
2024/01/17 09:57:18;;;;;;;0.30;0.20;;;4.30;99.90;;;;;;5079143;28;20706;-86
2024/01/17 09:59:48;;;;;;;0.30;0.30;;;4.30;99.90;;;;;;5086324;28;20207;-79
2024/01/17 10:02:16;;;;;;;0.30;0.20;;;4.30;99.90;;;;;;5085110;28;20204;-79
2024/01/17 10:04:45;;;;;;;0.30;0.30;;;4.40;99.90;;;;;;5087447;28;20717;-85
2024/01/17 10:07:12;;;;;;;0.30;0.20;;;4.40;99.90;;;;;;5084719;28;20349;-85
2024/01/17 10:09:38;;;;;;;0.30;0.20;;;4.40;99.90;;;;;;5080246;28;20232;-79
2024/01/17 10:12:04;;;;;;;0.30;0.20;;;4.50;99.90;;;;;;5081771;28;20704;-80
2024/01/17 10:14:30;;;;;;;0.30;0.20;;;4.50;99.90;;;;;;5079331;28;20290;-79
2024/01/17 10:16:56;;;;;;;0.30;0.20;;;4.50;99.90;;;;;;5069668;28;20207;-79
2024/01/17 10:19:24;;;;;;;0.30;0.20;;;4.50;99.90;;;;;;5080192;28;20197;-78
2024/01/17 10:21:50;;;;;;;0.30;0.20;;;4.50;99.90;;;;;;5079549;28;20174;-84
2024/01/17 10:24:16;;;;;;;0.30;0.20;;;4.60;99.90;;;;;;5076732;28;20498;-79
2024/01/17 10:26:44;;;;;;;0.30;0.20;;;4.60;99.90;;;;;;5082200;28;20556;-78
2024/01/17 10:29:13;;;;;;;0.30;0.20;;;4.60;99.90;;;;;;5082683;28;20204;-78
2024/01/17 10:31:39;;;;;;;0.30;0.20;;;4.60;99.90;;;;;;5083338;28;20223;-78
2024/01/17 10:34:07;;;;;;;0.30;0.20;;;4.50;99.90;;;;;;5080732;28;20218;-85
2024/01/17 10:36:34;;;;;;;0.30;0.20;;;4.60;99.90;;;;;;5078044;28;20181;-86
2024/01/17 10:39:06;;;;;;;0.30;0.20;;;4.70;99.90;;;;;;5076680;28;20280;-79
2024/01/17 10:41:32;;;;;;;0.30;0.20;;;4.70;99.90;;;;;;5078117;28;20177;-78
2024/01/17 10:44:05;;;;;;;0.30;0.20;;;4.80;99.90;;;;;;5082795;28;20212;-85
2024/01/17 10:46:33;;;;;;;0.30;0.20;;;4.80;99.90;;;;;;5080025;28;20317;-81
2024/01/17 10:48:59;;;;;;;0.30;0.28;;;4.80;99.90;;;;;;5081639;28;20673;-85
2024/01/17 10:51:25;;;;;;;0.30;0.20;;;4.90;99.90;;;;;;5085424;28;20201;-78
2024/01/17 10:53:53;;;;;;;0.30;0.20;;;4.90;99.90;;;;;;5082329;28;20212;-78
2024/01/17 10:56:20;;;;;;;0.30;0.20;;;4.90;99.90;;;;;;5079825;28;20455;-79
2024/01/17 10:58:52;;;;;;;0.30;0.20;;;4.90;99.90;;;;;;5084726;28;20279;-85
2024/01/17 11:01:35;;;;;;;0.30;0.20;;;5.00;99.90;;;;;;5083362;28;20536;-85
2024/01/17 11:04:16;;;;;;;0.30;0.20;;;5.00;99.90;;;;;;5080414;28;20200;-78
2024/01/17 11:06:43;;;;;;;0.30;0.20;;;5.00;99.90;;;;;;5083462;28;20332;-85
2024/01/17 11:09:14;;;;;;;0.30;0.20;;;5.00;99.90;;;;;;5078303;28;20725;-79
2024/01/17 11:11:42;;;;;;;0.30;0.30;;;5.00;99.90;;;;;;5081207;28;20242;-85
2024/01/17 11:14:08;;;;;;;0.30;0.20;;;5.00;99.90;;;;;;5080259;28;20204;-79
2024/01/17 11:16:36;;;;;;;0.30;0.20;;;5.10;99.90;;;;;;5081748;28;20169;-85
2024/01/17 11:19:03;;;;;;;0.30;0.20;;;5.10;99.90;;;;;;5076673;28;20690;-80
2024/01/17 11:21:31;;;;;;;0.30;0.30;;;5.10;99.90;;;;;;5082235;28;20230;-79
2024/01/17 11:24:20;;;;;;;0.30;0.20;;;5.10;99.90;;;;;;5084164;28;20243;-79
2024/01/17 11:26:59;;;;;;;0.30;0.20;;;5.10;99.90;;;;;;5083137;28;20177;-79
2024/01/17 11:29:35;;;;;;;0.30;0.20;;;5.20;99.90;;;;;;5081091;28;20692;-79
2024/01/17 11:32:09;;;;;;;0.30;0.20;;;5.20;99.90;;;;;;5078651;28;20207;-80
2024/01/17 11:34:35;;;;;;;0.30;0.30;;;5.20;99.90;;;;;;5078648;28;20541;-85
2024/01/17 11:37:00;;;;;;;0.30;0.30;;;5.20;99.90;;;;;;5077868;28;20189;-85
2024/01/17 11:39:26;;;;;;;0.30;0.20;;;5.20;99.90;;;;;;5083539;28;20208;-85
2024/01/17 11:41:53;;;;;;;0.30;0.20;;;5.30;99.90;;;;;;5078335;28;20184;-85
2024/01/17 11:44:20;;;;;;;0.30;0.20;;;5.30;99.90;;;;;;5077065;28;20282;-86
2024/01/17 11:46:51;;;;;;;0.30;0.20;;;5.30;99.90;;;;;;5070803;28;20221;-80
2024/01/17 11:49:28;;;;;;;0.30;0.20;;;5.40;99.90;;;;;;5097798;28;20200;-83
2024/01/17 11:51:53;;;;;;;0.30;0.20;;;5.40;99.90;;;;;;5078698;28;20223;-79
2024/01/17 11:54:19;;;;;;;0.30;0.20;;;5.50;99.90;;;;;;5081760;28;20204;-79
2024/01/17 11:56:45;;;;;;;0.30;0.30;;;5.50;99.90;;;;;;5075379;28;20180;-85
2024/01/17 11:59:12;;;;;;;0.30;0.25;;;5.50;99.90;;;;;;5075602;28;20204;-86
2024/01/17 12:01:40;;;;;;;0.30;0.20;;;5.50;99.90;;;;;;5076303;28;20189;-85
2024/01/17 12:04:17;;;;;;;0.30;0.20;;;5.50;99.90;;;;;;5074227;28;20474;-79
2024/01/17 12:06:49;;;;;;;0.30;0.20;;;5.50;99.90;;;;;;5073094;28;20275;-85
2024/01/17 12:09:19;;;;;;;0.30;0.20;;;5.60;99.90;;;;;;5077065;28;20585;-79
2024/01/17 12:11:46;;;;;;;0.30;0.20;;;5.60;99.90;;;;;;5078813;28;20222;-86
2024/01/17 12:14:13;;;;;;;0.30;0.30;;;5.60;99.90;;;;;;5079052;28;20211;-83
2024/01/17 12:16:38;;;;;;;0.30;0.20;;;5.70;99.90;;;;;;5074815;28;20177;-86
2024/01/17 12:19:04;;;;;;;0.30;0.20;;;5.70;99.90;;;;;;5077132;28;20209;-86
2024/01/17 12:21:30;;;;;;;0.30;0.20;;;5.70;99.90;;;;;;5076066;28;20276;-86
2024/01/17 12:23:56;;;;;;;0.30;0.20;;;5.70;99.90;;;;;;5076644;28;20279;-80
2024/01/17 12:26:22;;;;;;;0.30;0.20;;;5.70;99.90;;;;;;5073566;28;20407;-86
2024/01/17 12:28:48;;;;;;;0.30;0.20;;;5.80;99.90;;;;;;5078773;28;20419;-79
2024/01/17 12:31:16;;;;;;;0.30;0.20;;;5.80;99.90;;;;;;5077261;28;20461;-85
2024/01/17 12:33:44;;;;;;;0.30;0.20;;;5.70;99.90;;;;;;5081748;28;20200;-84
2024/01/17 12:36:09;;;;;;;0.30;0.20;;;5.80;99.90;;;;;;5083822;28;20234;-80
2024/01/17 12:38:39;;;;;;;0.30;0.20;;;5.80;99.90;;;;;;5095433;28;20228;-80
2024/01/17 12:41:05;;;;;;;0.30;0.30;;;5.80;99.90;;;;;;5079531;28;20681;-79
2024/01/17 12:43:35;;;;;;;0.30;0.20;;;5.80;99.90;;;;;;5080617;28;20605;-87
2024/01/17 12:46:02;;;;;;;0.30;0.20;;;5.80;99.90;;;;;;5079885;28;20297;-80
2024/01/17 12:48:28;;;;;;;0.30;0.20;;;5.90;99.90;;;;;;5082862;28;20197;-87
2024/01/17 12:50:58;;;;;;;0.30;0.20;;;5.90;99.90;;;;;;5081164;28;20550;-83
2024/01/17 12:53:31;;;;;;;0.30;0.20;;;5.90;99.90;;;;;;5087349;28;21033;-87
2024/01/17 12:55:59;;;;;;;0.30;0.20;;;5.80;99.90;;;;;;5080790;28;20184;-86